Baie Comeau, Baie Comeau Airport (CYBC)

NameBaie Comeau Airport
CityBaie Comeau
CountryCanada
ICAOCYBC
IATAYBC
Altitude22 m
CoordinatesGoogle Map
Live Air TrafficLiveATC.net
METARCYBC 211300Z AUTO 16006KT 3/4SM R10/4000V5500FT/ -SN OVC007 M05/M06 A2973 RMK SLP071
2018-11-21 13:00:00 Wind: South-Southeast (160°) 3.09 m/s - Visibility: 6437.36 m - Weather: Light Snow - Temperature: -5 °C - Dew point: -6 °C - Humidity: 92.8% - Pressure: 1006.77 hPa
Statistics

The table below shows the detailed information of all flights to/from Baie Comeau, Baie Comeau Airport (CYBC).